Ernest A. Love Field Prescott US
ICAO: KPRC
IATA: PRC
Category: Medium
Scheduled Services: Yes

Elevation: 5045 ft
TransAlt. 18000 ft.

Airport Communications:
ATIS:127.2
ALBUQUERQUE CNTR:128.45
CTAF:125.3
GND:121.7
PRESCOTT RDO:122.2
PRESCOTT TWR:125.3
UNICOM:122.95

KPRC Zoom In..

If you have problems with the map follow the link
https://www.worldairports.se/pages/airport.php?
ICAO=KPRC

Runways:

(A) RW 03L length 4846 ft width 60 ft
---- / hdg 28

(B) RW 03R length 7619 ft width 150 ft
---- / hdg 28

(C) RW 12 length 4408 ft width 75 ft
---- / hdg 124

(D) RW 21L length 7619 ft width 150 ft
ILS 108.50 / hdg 208

(E) RW 21R length 4846 ft width 60 ft
---- / hdg 208

(F) RW 30 length 4408 ft width 75 ft
---- / hdg 304

Location; KPRC
Day. 14 / Time. 04.53 Zulu
* Altimeter: 30.06
* Temperature: 07° c. 44.6°f.
* Wind from: VRB° Speed 03 kn.
Dewpoint: 02° c.
Visibility: 10 Statute Miles.
Clouds: Clear (automated report).

KPRC 140453Z AUTO VRB03KT 10SM CLR 07/02 A3006 RMK AO2 SLP145 T00720022


Wind From VRB°
Speed 03 kn.

 
 
jpsmedia worldairports.se 2019   terms of use